Flight Track Log - Related Links

Times and Time Zones

All times are in EST time to prevent confusion due to time zone crossing. See the EJA929 flight status page for this flight to view local times or setup timezone preferences in your user account.

Time Position Orientation Groundspeed Altitude Reporting Facility
EST Latitude Longitude Course Direction KTS MPH feet Rate Location/Type
Mon 12:11:20 PM 45.5811 -122.5661 98° East 168 193 800  Level Seattle Center
Mon 12:12:27 PM 45.5725 -122.4803 98° East 213 245 4,800 3,126 Climbing Seattle Center
Mon 12:13:19 PM 45.6222 -122.4453 26° Northeast 241 277 7,000 2,618 Climbing Seattle Center
Mon 12:13:22 PM 45.6275 -122.4419 24° Northeast 254 292 7,200 2,852 Climbing Seattle Center
Mon 12:14:20 PM 45.6931 -122.4517 354° North 268 308 9,900 2,420 Climbing Seattle Center
Mon 12:15:21 PM 45.7817 -122.4872 344° North 321 369 12,000 2,115 Climbing Seattle Center
Mon 12:16:22 PM 45.8733 -122.5250 344° North 343 395 14,200 1,884 Climbing Seattle Center
Mon 12:17:22 PM 45.9686 -122.5536 348° North 355 409 15,800 1,636 Climbing Seattle Center
Mon 12:18:23 PM 46.0717 -122.5428 North 374 430 17,500 1,426 Climbing Seattle Center
Mon 12:19:24 PM 46.1819 -122.5214 North 385 443 18,700 1,230 Climbing Seattle Center
Mon 12:20:25 PM 46.2797 -122.5047 North 390 449 20,000 639 Climbing Seattle Center
Mon 12:21:26 PM 46.3944 -122.4869 North 408 470 20,000  Level Seattle Center
Mon 12:22:26 PM 46.5064 -122.4683 North 407 468 20,000  Level Seattle Center
Mon 12:23:27 PM 46.6236 -122.4497 North 420 483 20,000  Level Seattle Center
Mon 12:24:28 PM 46.7419 -122.4283 North 428 493 20,000  Level Seattle Center
Mon 12:25:29 PM 46.8608 -122.4081 North 430 495 20,000  Level Seattle Center
Mon 12:26:30 PM 47.0036 -122.3839 North 431 496 20,000  Level Seattle Center
Mon 12:27:30 PM 47.1219 -122.3628 North 429 494 20,000  Level Seattle Center
Mon 12:28:31 PM 47.2411 -122.3425 North 432 497 20,000  Level Seattle Center
Mon 12:29:32 PM 47.3603 -122.3236 North 434 499 20,000  Level Seattle Center
Mon 12:30:33 PM 47.4786 -122.3072 North 431 496 20,000  Level Seattle Center
Mon 12:31:34 PM 47.5956 -122.3000 North 428 493 20,000  Level Seattle Center
Mon 12:32:35 PM 47.7108 -122.2903 North 433 498 20,000  Level Seattle Center
Mon 12:33:35 PM 47.8283 -122.2842 North 432 497 20,000  Level Seattle Center
Mon 12:34:36 PM 47.9675 -122.2900 358° North 419 482 20,000  Level Seattle Center
Mon 12:35:37 PM 48.0683 -122.3200 349° North 376 433 20,000 -393 Level Seattle Center
Mon 12:36:38 PM 48.1653 -122.3486 349° North 361 415 19,200 -1,033 Descending Seattle Center
Mon 12:37:39 PM 48.2669 -122.3781 349° North 368 423 17,900 -1,140 Descending Seattle Center
Mon 12:38:39 PM 48.3686 -122.4081 349° North 369 425 16,900 -1,190 Descending Seattle Center
Mon 12:39:40 PM 48.4644 -122.4367 349° North 353 406 15,500 -1,377 Descending Seattle Center
Mon 12:40:41 PM 48.5572 -122.4636 349° North 344 396 14,100 -1,377 Descending Seattle Center
Mon 12:41:42 PM 48.6544 -122.4911 349° North 351 404 12,700 -580 Descending Seattle Center
Mon 12:47:09 PM 48.9617 -122.9467 349° North 9,800 -446 Descending FlightAware ADS-B (FAKM / KIM)
Mon 12:47:45 PM 48.9833 -123.0167 349° North 250 288 10,000 125 Climbing Vancouver Center
Mon 12:48:45 PM 49.0167 -123.0833 307° West 250 288 10,000 -400 Level Vancouver Center
Mon 12:49:45 PM 49.0667 -123.1667 312° West 250 288 9,200 -650 Descending Vancouver Center
Mon 12:50:45 PM 49.0667 -123.2333 270° West 210 242 8,700 -900 Descending Vancouver Center
Mon 12:51:45 PM 49.0833 -123.3167 287° West 200 230 7,400 -1,250 Descending Vancouver Center
Mon 12:52:45 PM 49.1000 -123.4167 284° West 210 242 6,200 -1,300 Descending Vancouver Center
Mon 12:53:45 PM 49.1333 -123.4667 316° Northwest 220 253 4,800 -1,200 Descending Vancouver Center
Mon 12:54:45 PM 49.2000 -123.4167 26° Northeast 230 265 3,800 -1,250 Descending Vancouver Center
Mon 12:55:45 PM 49.1833 -123.3333 107° East 220 253 2,300 -1,450 Descending Vancouver Center
Mon 12:56:45 PM 49.1833 -123.2667 90° East 180 207 900 -1,100 Descending Vancouver Center
Mon 12:57:45 PM 49.1667 -123.2167 117° Southeast 130 150 100 -800 Descending Vancouver Center

Login

Don't have an account? Register now (free) for customized features, flight alerts, and more!